Goliah — WDD5908 — position and weather

sailwx.info

Track history (hours):
 
Tides and Currents Weather Stations Pressure Air Temp Water Temp Dewpoint Dewpoint Depression Visibility Wind Speed Wind Dir Waves Ship Positions

Goliah

Owner: Crowley Marine Services, Seattle, WA. More information available from US FCC via Universal Licensing System and Coast Guard Vessel Documentation Center.

Last reported at 2016-May-25 00:33 UTC. Time now 2016-May-25 01:23 UTC.
Position N 33°45' W 118°16'.

Length 33 m; draft 4.8 m.

Type: Tug. MMSI: 366898250.

Date/timePositionNaut miles runAvg speedWind from/ knotsBaromVisibWave heightAir tempDewpointWater temp
2016-May-25 00:33N 33°45' W 118°16'1 0.5
2016-May-24 23:34N 33°45' W 118°16'2 1.5
2016-May-24 22:33N 33°44' W 118°16'1 0.5
2016-May-24 21:25N 33°44' W 118°16'1 1.3
2016-May-24 20:33N 33°44' W 118°17'0 0.0
2016-May-24 19:33N 33°44' W 118°17'0 0.0
2016-May-24 18:33N 33°44' W 118°17'0 0.0
2016-May-24 17:33N 33°44' W 118°17'0 0.0
2016-May-24 16:32N 33°44' W 118°17'3 0.9
2016-May-24 13:27N 33°43' W 118°13'3 3.0
2016-May-24 12:33N 33°46' W 118°14'4 3.2
2016-May-24 11:25N 33°43' W 118°11'2 2.7
2016-May-24 10:33N 33°45' W 118°13'0 0.0
2016-May-24 09:33N 33°45' W 118°13'1 1.2
2016-May-24 08:33N 33°44' W 118°12'1 0.8
2016-May-24 07:33N 33°43' W 118°13'3 0.1
2016-May-22 23:22N 33°44' W 118°17'0 0.0
2016-May-22 22:33N 33°44' W 118°17'0 0.0
2016-May-22 21:21N 33°44' W 118°17'6 0.1
2016-May-20 18:05N 33°44' W 118°09'1 1.6
2016-May-20 17:31N 33°44' W 118°10'2 2.5
2016-May-20 16:33N 33°45' W 118°13'0 0.0
2016-May-20 15:33N 33°45' W 118°13'3 2.9
2016-May-20 14:27N 33°44' W 118°17'2 2.5
2016-May-20 13:33N 33°46' W 118°16'0 0.0
2016-May-20 12:33N 33°46' W 118°16'2 2.4
2016-May-20 11:33N 33°44' W 118°16'2 2.0
2016-May-20 10:33N 33°45' W 118°17'0 0.1
2016-May-20 09:33N 33°45' W 118°17'1 0.2
2016-May-20 06:31N 33°45' W 118°16'0 0.2
2016-May-20 04:29N 33°44' W 118°17'1 0.4
2016-May-20 00:32N 33°43' W 118°16'2 0.2
2016-May-19 17:33N 33°45' W 118°17'1 0.5
2016-May-19 16:30N 33°45' W 118°16'1 0.9
2016-May-19 15:09N 33°44' W 118°16'2 2.7
2016-May-19 14:30N 33°45' W 118°14'2 1.6
2016-May-19 13:33N 33°44' W 118°13'0 0.4
2016-May-19 12:33N 33°45' W 118°13'1 1.1
2016-May-19 11:30N 33°45' W 118°14'0 0.0
2016-May-19 10:33N 33°45' W 118°14'2 1.6
2016-May-19 09:33N 33°44' W 118°14'3 0.4
2016-May-19 02:08N 33°46' W 118°15'0 0.7
2016-May-19 01:30N 33°46' W 118°15'2 1.6
2016-May-19 00:10N 33°44' W 118°17'4 1.7
2016-May-18 22:07N 33°45' W 118°12'4 1.0
2016-May-18 18:28N 33°44' W 118°17'4 0.3
2016-May-18 06:32N 33°45' W 118°12'1 0.1
2016-May-18 00:13N 33°44' W 118°12'1 0.2
2016-May-17 18:30N 33°45' W 118°13'1 0.7
2016-May-17 17:13N 33°46' W 118°14'2 0.5
2016-May-17 13:19N 33°44' W 118°13'0 0.3
2016-May-17 12:26N 33°44' W 118°12'3 0.7
2016-May-17 08:19N 33°46' W 118°15'2 0.3
2016-May-17 02:13N 33°45' W 118°13'1 1.2
2016-May-17 01:22N 33°46' W 118°13'0 0.1
2016-May-17 00:32N 33°46' W 118°13'1 0.2
2016-May-16 17:27N 33°45' W 118°13'1 1.0
2016-May-16 16:26N 33°46' W 118°13'1 1.4
2016-May-16 15:28N 33°45' W 118°13'0 0.0
2016-May-16 14:30N 33°45' W 118°13'1 1.3
2016-May-16 13:24N 33°46' W 118°13'1 0.7
2016-May-16 11:26N 33°45' W 118°13'0 0.0
2016-May-16 10:19N 33°45' W 118°13'0 0.0
2016-May-16 09:32N 33°45' W 118°13'0 0.0
2016-May-16 08:33N 33°45' W 118°13'0 0.1
2016-May-16 01:33N 33°45' W 118°13'1 0.6
2016-May-16 00:30N 33°46' W 118°13'0 0.1
2016-May-15 19:14N 33°46' W 118°13'3 3.7
2016-May-15 18:32N 33°44' W 118°12'0 0.4
2016-May-15 17:28N 33°44' W 118°12'4 0.5
2016-May-15 10:20N 33°44' W 118°17'  
Track history (hours):
 
Tides and Currents Weather Stations Pressure Air Temp Water Temp Dewpoint Dewpoint Depression Visibility Wind Speed Wind Dir Waves Ship Positions

Goliah

Owner: Crowley Marine Services, Seattle, WA. More information available from US FCC via Universal Licensing System and Coast Guard Vessel Documentation Center.

Last reported at 2016-May-25 00:33 UTC. Time now 2016-May-25 01:23 UTC.
Position N 33°45' W 118°16'.

Length 33 m; draft 4.8 m.

Type: Tug. MMSI: 366898250.

Date/timePositionNaut miles runAvg speedWind from/ knotsBaromVisibWave heightAir tempDewpointWater temp
2016-May-25 00:33N 33°45' W 118°16'1 0.5
2016-May-24 23:34N 33°45' W 118°16'2 1.5
2016-May-24 22:33N 33°44' W 118°16'1 0.5
2016-May-24 21:25N 33°44' W 118°16'1 1.3
2016-May-24 20:33N 33°44' W 118°17'0 0.0
2016-May-24 19:33N 33°44' W 118°17'0 0.0
2016-May-24 18:33N 33°44' W 118°17'0 0.0
2016-May-24 17:33N 33°44' W 118°17'0 0.0
2016-May-24 16:32N 33°44' W 118°17'3 0.9
2016-May-24 13:27N 33°43' W 118°13'3 3.0
2016-May-24 12:33N 33°46' W 118°14'4 3.2
2016-May-24 11:25N 33°43' W 118°11'2 2.7
2016-May-24 10:33N 33°45' W 118°13'0 0.0
2016-May-24 09:33N 33°45' W 118°13'1 1.2
2016-May-24 08:33N 33°44' W 118°12'1 0.8
2016-May-24 07:33N 33°43' W 118°13'3 0.1
2016-May-22 23:22N 33°44' W 118°17'0 0.0
2016-May-22 22:33N 33°44' W 118°17'0 0.0
2016-May-22 21:21N 33°44' W 118°17'6 0.1
2016-May-20 18:05N 33°44' W 118°09'1 1.6
2016-May-20 17:31N 33°44' W 118°10'2 2.5
2016-May-20 16:33N 33°45' W 118°13'0 0.0
2016-May-20 15:33N 33°45' W 118°13'3 2.9
2016-May-20 14:27N 33°44' W 118°17'2 2.5
2016-May-20 13:33N 33°46' W 118°16'0 0.0
2016-May-20 12:33N 33°46' W 118°16'2 2.4
2016-May-20 11:33N 33°44' W 118°16'2 2.0
2016-May-20 10:33N 33°45' W 118°17'0 0.1
2016-May-20 09:33N 33°45' W 118°17'1 0.2
2016-May-20 06:31N 33°45' W 118°16'0 0.2
2016-May-20 04:29N 33°44' W 118°17'1 0.4
2016-May-20 00:32N 33°43' W 118°16'2 0.2
2016-May-19 17:33N 33°45' W 118°17'1 0.5
2016-May-19 16:30N 33°45' W 118°16'1 0.9
2016-May-19 15:09N 33°44' W 118°16'2 2.7
2016-May-19 14:30N 33°45' W 118°14'2 1.6
2016-May-19 13:33N 33°44' W 118°13'0 0.4
2016-May-19 12:33N 33°45' W 118°13'1 1.1
2016-May-19 11:30N 33°45' W 118°14'0 0.0
2016-May-19 10:33N 33°45' W 118°14'2 1.6
2016-May-19 09:33N 33°44' W 118°14'3 0.4
2016-May-19 02:08N 33°46' W 118°15'0 0.7
2016-May-19 01:30N 33°46' W 118°15'2 1.6
2016-May-19 00:10N 33°44' W 118°17'4 1.7
2016-May-18 22:07N 33°45' W 118°12'4 1.0
2016-May-18 18:28N 33°44' W 118°17'4 0.3
2016-May-18 06:32N 33°45' W 118°12'1 0.1
2016-May-18 00:13N 33°44' W 118°12'1 0.2
2016-May-17 18:30N 33°45' W 118°13'1 0.7
2016-May-17 17:13N 33°46' W 118°14'2 0.5
2016-May-17 13:19N 33°44' W 118°13'0 0.3
2016-May-17 12:26N 33°44' W 118°12'3 0.7
2016-May-17 08:19N 33°46' W 118°15'2 0.3
2016-May-17 02:13N 33°45' W 118°13'1 1.2
2016-May-17 01:22N 33°46' W 118°13'0 0.1
2016-May-17 00:32N 33°46' W 118°13'1 0.2
2016-May-16 17:27N 33°45' W 118°13'1 1.0
2016-May-16 16:26N 33°46' W 118°13'1 1.4
2016-May-16 15:28N 33°45' W 118°13'0 0.0
2016-May-16 14:30N 33°45' W 118°13'1 1.3
2016-May-16 13:24N 33°46' W 118°13'1 0.7
2016-May-16 11:26N 33°45' W 118°13'0 0.0
2016-May-16 10:19N 33°45' W 118°13'0 0.0
2016-May-16 09:32N 33°45' W 118°13'0 0.0
2016-May-16 08:33N 33°45' W 118°13'0 0.1
2016-May-16 01:33N 33°45' W 118°13'1 0.6
2016-May-16 00:30N 33°46' W 118°13'0 0.1
2016-May-15 19:14N 33°46' W 118°13'3 3.7
2016-May-15 18:32N 33°44' W 118°12'0 0.4
2016-May-15 17:28N 33°44' W 118°12'4 0.5
2016-May-15 10:20N 33°44' W 118°17'  

Dump ship's entire track history